コペンハーゲン の空港の天気 - METARとTAF

コペンハーゲン国際空港 ( EKCH / CPH ) - デンマーク コペンハーゲン
飛行場実況気象(Metar)
観測時間05/29 00:20 CEST (05/28 22:20 UTC)
風向・風速西南西 4m/s
視程10km以上
天気現象
全天の8割程度の雲 雲底高度 2350m
気温12℃
湿度82%
気圧1009hPa
METAREKCH 282220Z AUTO 25007KT 9999 BKN077/// 12/09 Q1009 NOSIG
過去の天気等 Google飛行場航空写真 Wunderground天気予報

過去48時間のMETAR

飛行場予報(TAF)
発表時間: 5/28 19:08 CEST (5/28 17:08 UTC)
予報対象時間: 28日20時 CEST ~ 29日20時 CEST
風向・風速北西 8m/s
視程10km以上
全天の4割程度の雲 雲底高度 1220m
28日20時 CEST ~ 28日23時 CEST に徐々に
風向・風速西北西 3m/s
29日13時 CEST ~ 29日14時 CEST に一時的に
天気現象しゅう雨
全天の4割程度の積乱雲 雲底高度 910m
TAF EKCH 281708Z 2818/2918 32015KT 9999 SCT040
BECMG 2818/2821 29005KT
TEMPO 2911/2912 SHRA SCT030CB